sensor_id;sensor_type;location;lat;lon;timestamp;temperature;humidity
17437;DHT22;8836;52.272;5.134;2022-07-23T00:00:39;26.50;98.10
17437;DHT22;8836;52.272;5.134;2022-07-23T00:03:07;26.50;98.00
17437;DHT22;8836;52.272;5.134;2022-07-23T00:05:35;26.50;98.00
17437;DHT22;8836;52.272;5.134;2022-07-23T00:08:02;26.50;98.00
17437;DHT22;8836;52.272;5.134;2022-07-23T00:10:29;26.50;98.00
17437;DHT22;8836;52.272;5.134;2022-07-23T00:12:56;26.50;98.00
17437;DHT22;8836;52.272;5.134;2022-07-23T00:15:23;27.60;98.40
17437;DHT22;8836;52.272;5.134;2022-07-23T00:17:50;26.50;98.00
17437;DHT22;8836;52.272;5.134;2022-07-23T00:20:19;26.50;98.00
17437;DHT22;8836;52.272;5.134;2022-07-23T00:22:46;26.50;98.00
17437;DHT22;8836;52.272;5.134;2022-07-23T00:25:14;26.50;98.00
17437;DHT22;8836;52.272;5.134;2022-07-23T00:27:41;26.50;98.00
17437;DHT22;8836;52.272;5.134;2022-07-23T00:30:10;26.50;98.00
17437;DHT22;8836;52.272;5.134;2022-07-23T00:32:45;26.60;98.10
17437;DHT22;8836;52.272;5.134;2022-07-23T00:35:13;26.60;98.10
17437;DHT22;8836;52.272;5.134;2022-07-23T00:37:42;26.50;98.00
17437;DHT22;8836;52.272;5.134;2022-07-23T00:40:10;26.60;98.10
17437;DHT22;8836;52.272;5.134;2022-07-23T00:42:38;26.60;98.10
17437;DHT22;8836;52.272;5.134;2022-07-23T00:45:07;26.60;98.10
17437;DHT22;8836;52.272;5.134;2022-07-23T00:47:35;26.60;98.10
17437;DHT22;8836;52.272;5.134;2022-07-23T00:50:03;26.50;98.10
17437;DHT22;8836;52.272;5.134;2022-07-23T00:52:32;26.50;98.10
17437;DHT22;8836;52.272;5.134;2022-07-23T00:55:03;26.50;98.10
17437;DHT22;8836;52.272;5.134;2022-07-23T00:57:30;26.60;98.10
17437;DHT22;8836;52.272;5.134;2022-07-23T00:59:57;26.50;98.10
17437;DHT22;8836;52.272;5.134;2022-07-23T01:02:24;26.60;98.10
17437;DHT22;8836;52.272;5.134;2022-07-23T01:04:52;26.60;98.10
17437;DHT22;8836;52.272;5.134;2022-07-23T01:07:20;26.60;98.10
17437;DHT22;8836;52.272;5.134;2022-07-23T01:09:49;26.60;98.10
17437;DHT22;8836;52.272;5.134;2022-07-23T01:12:18;26.60;98.10
17437;DHT22;8836;52.272;5.134;2022-07-23T01:14:53;26.60;98.00
17437;DHT22;8836;52.272;5.134;2022-07-23T01:17:21;26.60;98.00
17437;DHT22;8836;52.272;5.134;2022-07-23T01:19:48;26.60;98.00
17437;DHT22;8836;52.272;5.134;2022-07-23T01:22:18;26.60;98.00
17437;DHT22;8836;52.272;5.134;2022-07-23T01:24:47;26.60;98.10
17437;DHT22;8836;52.272;5.134;2022-07-23T01:27:14;26.60;98.10
17437;DHT22;8836;52.272;5.134;2022-07-23T01:29:43;26.60;98.10
17437;DHT22;8836;52.272;5.134;2022-07-23T01:32:10;26.60;98.10
17437;DHT22;8836;52.272;5.134;2022-07-23T01:34:36;26.60;98.00
17437;DHT22;8836;52.272;5.134;2022-07-23T01:37:05;26.60;98.00
17437;DHT22;8836;52.272;5.134;2022-07-23T01:39:32;26.60;98.10
17437;DHT22;8836;52.272;5.134;2022-07-23T01:42:00;26.60;98.10
17437;DHT22;8836;52.272;5.134;2022-07-23T01:44:27;26.60;98.00
17437;DHT22;8836;52.272;5.134;2022-07-23T01:46:56;27.90;98.50
17437;DHT22;8836;52.272;5.134;2022-07-23T01:49:23;26.60;98.00
17437;DHT22;8836;52.272;5.134;2022-07-23T01:51:50;26.60;98.00
17437;DHT22;8836;52.272;5.134;2022-07-23T01:54:26;26.60;98.00
17437;DHT22;8836;52.272;5.134;2022-07-23T01:56:53;26.60;98.00
17437;DHT22;8836;52.272;5.134;2022-07-23T01:59:21;26.60;98.00
17437;DHT22;8836;52.272;5.134;2022-07-23T02:01:49;26.60;98.00
17437;DHT22;8836;52.272;5.134;2022-07-23T02:04:17;26.60;98.00
17437;DHT22;8836;52.272;5.134;2022-07-23T02:06:44;26.60;98.00
17437;DHT22;8836;52.272;5.134;2022-07-23T02:09:11;26.60;98.10
17437;DHT22;8836;52.272;5.134;2022-07-23T02:11:38;26.60;98.00
17437;DHT22;8836;52.272;5.134;2022-07-23T02:14:05;26.60;98.00
17437;DHT22;8836;52.272;5.134;2022-07-23T02:16:33;26.60;98.00
17437;DHT22;8836;52.272;5.134;2022-07-23T02:19:00;26.60;98.00
17437;DHT22;8836;52.272;5.134;2022-07-23T02:21:27;26.60;98.00
17437;DHT22;8836;52.272;5.134;2022-07-23T02:23:54;26.60;97.90
17437;DHT22;8836;52.272;5.134;2022-07-23T02:26:21;26.60;97.90
17437;DHT22;8836;52.272;5.134;2022-07-23T02:28:48;26.60;97.90
17437;DHT22;8836;52.272;5.134;2022-07-23T02:31:15;26.60;97.90
17437;DHT22;8836;52.272;5.134;2022-07-23T02:33:43;26.60;97.90
17437;DHT22;8836;52.272;5.134;2022-07-23T02:36:10;26.60;97.90
17437;DHT22;8836;52.272;5.134;2022-07-23T02:38:37;26.50;97.80
17437;DHT22;8836;52.272;5.134;2022-07-23T02:41:04;26.60;97.90
17437;DHT22;8836;52.272;5.134;2022-07-23T02:43:31;26.60;97.80
17437;DHT22;8836;52.272;5.134;2022-07-23T02:45:57;26.60;97.80
17437;DHT22;8836;52.272;5.134;2022-07-23T02:48:24;26.60;97.80
17437;DHT22;8836;52.272;5.134;2022-07-23T02:50:53;26.60;97.70
17437;DHT22;8836;52.272;5.134;2022-07-23T02:53:21;26.60;97.70
17437;DHT22;8836;52.272;5.134;2022-07-23T02:55:49;26.60;97.70
17437;DHT22;8836;52.272;5.134;2022-07-23T02:58:16;26.60;97.70
17437;DHT22;8836;52.272;5.134;2022-07-23T03:00:43;26.60;97.70
17437;DHT22;8836;52.272;5.134;2022-07-23T03:03:10;26.60;97.70
17437;DHT22;8836;52.272;5.134;2022-07-23T03:05:36;26.60;97.60
17437;DHT22;8836;52.272;5.134;2022-07-23T03:08:05;26.60;97.60
17437;DHT22;8836;52.272;5.134;2022-07-23T03:10:32;27.90;98.10
17437;DHT22;8836;52.272;5.134;2022-07-23T03:12:59;26.60;97.60
17437;DHT22;8836;52.272;5.134;2022-07-23T03:15:26;26.60;97.60
17437;DHT22;8836;52.272;5.134;2022-07-23T03:17:53;26.60;97.60
17437;DHT22;8836;52.272;5.134;2022-07-23T03:20:20;26.60;97.60
17437;DHT22;8836;52.272;5.134;2022-07-23T03:22:47;26.60;97.50
17437;DHT22;8836;52.272;5.134;2022-07-23T03:25:15;26.60;97.50
17437;DHT22;8836;52.272;5.134;2022-07-23T03:27:42;26.60;97.50
17437;DHT22;8836;52.272;5.134;2022-07-23T03:30:11;26.60;97.50
17437;DHT22;8836;52.272;5.134;2022-07-23T03:32:38;26.60;97.50
17437;DHT22;8836;52.272;5.134;2022-07-23T03:35:06;26.60;97.50
17437;DHT22;8836;52.272;5.134;2022-07-23T03:37:33;26.60;97.40
17437;DHT22;8836;52.272;5.134;2022-07-23T03:40:00;26.60;97.40
17437;DHT22;8836;52.272;5.134;2022-07-23T03:42:29;26.60;97.50
17437;DHT22;8836;52.272;5.134;2022-07-23T03:44:56;26.50;97.40
17437;DHT22;8836;52.272;5.134;2022-07-23T03:47:22;26.60;97.40
17437;DHT22;8836;52.272;5.134;2022-07-23T03:49:49;26.50;97.40
17437;DHT22;8836;52.272;5.134;2022-07-23T03:52:16;26.50;97.40
17437;DHT22;8836;52.272;5.134;2022-07-23T03:54:43;26.60;97.40
17437;DHT22;8836;52.272;5.134;2022-07-23T03:57:10;26.60;97.50
17437;DHT22;8836;52.272;5.134;2022-07-23T03:59:38;26.60;97.40
17437;DHT22;8836;52.272;5.134;2022-07-23T04:02:05;26.60;97.30
17437;DHT22;8836;52.272;5.134;2022-07-23T04:04:32;26.60;97.30
17437;DHT22;8836;52.272;5.134;2022-07-23T04:06:59;26.60;97.30
17437;DHT22;8836;52.272;5.134;2022-07-23T04:09:26;26.60;97.30
17437;DHT22;8836;52.272;5.134;2022-07-23T04:11:53;26.60;97.30
17437;DHT22;8836;52.272;5.134;2022-07-23T04:14:20;26.60;97.20
17437;DHT22;8836;52.272;5.134;2022-07-23T04:16:48;26.60;97.20
17437;DHT22;8836;52.272;5.134;2022-07-23T04:19:15;26.50;97.20
17437;DHT22;8836;52.272;5.134;2022-07-23T04:21:42;26.50;97.20
17437;DHT22;8836;52.272;5.134;2022-07-23T04:24:09;26.50;97.20
17437;DHT22;8836;52.272;5.134;2022-07-23T04:26:36;26.50;97.20
17437;DHT22;8836;52.272;5.134;2022-07-23T04:29:03;26.50;97.20
17437;DHT22;8836;52.272;5.134;2022-07-23T04:31:30;26.60;97.20
17437;DHT22;8836;52.272;5.134;2022-07-23T04:33:58;26.60;97.20
17437;DHT22;8836;52.272;5.134;2022-07-23T04:36:25;26.50;97.10
17437;DHT22;8836;52.272;5.134;2022-07-23T04:38:52;26.60;97.10
17437;DHT22;8836;52.272;5.134;2022-07-23T04:41:19;26.60;97.10
17437;DHT22;8836;52.272;5.134;2022-07-23T04:43:46;26.60;97.10
17437;DHT22;8836;52.272;5.134;2022-07-23T04:46:13;26.60;97.10
17437;DHT22;8836;52.272;5.134;2022-07-23T04:48:40;26.60;97.10
17437;DHT22;8836;52.272;5.134;2022-07-23T04:51:09;26.60;97.10
17437;DHT22;8836;52.272;5.134;2022-07-23T04:53:37;26.60;97.10
17437;DHT22;8836;52.272;5.134;2022-07-23T04:56:04;26.60;97.10
17437;DHT22;8836;52.272;5.134;2022-07-23T04:58:32;26.60;97.10
17437;DHT22;8836;52.272;5.134;2022-07-23T05:00:59;27.30;97.30
17437;DHT22;8836;52.272;5.134;2022-07-23T05:03:26;26.60;97.10
17437;DHT22;8836;52.272;5.134;2022-07-23T05:05:53;26.60;97.10
17437;DHT22;8836;52.272;5.134;2022-07-23T05:08:22;26.60;97.40
17437;DHT22;8836;52.272;5.134;2022-07-23T05:10:49;26.60;97.10
17437;DHT22;8836;52.272;5.134;2022-07-23T05:13:17;27.20;97.30
17437;DHT22;8836;52.272;5.134;2022-07-23T05:15:45;26.70;97.10
17437;DHT22;8836;52.272;5.134;2022-07-23T05:18:13;26.70;97.10
17437;DHT22;8836;52.272;5.134;2022-07-23T05:20:40;26.70;97.30
17437;DHT22;8836;52.272;5.134;2022-07-23T05:23:07;26.70;97.10
17437;DHT22;8836;52.272;5.134;2022-07-23T05:25:36;26.70;97.10
17437;DHT22;8836;52.272;5.134;2022-07-23T05:28:03;26.70;97.10
17437;DHT22;8836;52.272;5.134;2022-07-23T05:30:30;26.60;97.00
17437;DHT22;8836;52.272;5.134;2022-07-23T05:32:57;26.60;97.10
17437;DHT22;8836;52.272;5.134;2022-07-23T05:35:24;26.70;97.10
17437;DHT22;8836;52.272;5.134;2022-07-23T05:37:52;26.60;97.10
17437;DHT22;8836;52.272;5.134;2022-07-23T05:40:19;26.60;97.10
17437;DHT22;8836;52.272;5.134;2022-07-23T05:42:47;26.60;97.10
17437;DHT22;8836;52.272;5.134;2022-07-23T05:45:14;26.60;97.10
17437;DHT22;8836;52.272;5.134;2022-07-23T05:47:42;26.60;97.20
17437;DHT22;8836;52.272;5.134;2022-07-23T05:50:10;26.60;97.20
17437;DHT22;8836;52.272;5.134;2022-07-23T05:52:38;26.60;97.20
17437;DHT22;8836;52.272;5.134;2022-07-23T05:55:06;26.70;97.20
17437;DHT22;8836;52.272;5.134;2022-07-23T05:57:35;26.70;97.30
17437;DHT22;8836;52.272;5.134;2022-07-23T06:00:05;26.60;97.20
17437;DHT22;8836;52.272;5.134;2022-07-23T06:02:33;26.70;97.30
17437;DHT22;8836;52.272;5.134;2022-07-23T06:05:00;27.70;97.70
17437;DHT22;8836;52.272;5.134;2022-07-23T06:07:27;26.70;97.30
17437;DHT22;8836;52.272;5.134;2022-07-23T06:09:54;26.70;97.40
17437;DHT22;8836;52.272;5.134;2022-07-23T06:12:21;26.70;97.40
17437;DHT22;8836;52.272;5.134;2022-07-23T06:14:48;26.70;97.40
17437;DHT22;8836;52.272;5.134;2022-07-23T06:17:18;26.70;97.50
17437;DHT22;8836;52.272;5.134;2022-07-23T06:19:45;27.10;97.60
17437;DHT22;8836;52.272;5.134;2022-07-23T06:22:12;26.80;97.50
17437;DHT22;8836;52.272;5.134;2022-07-23T06:24:39;26.80;97.50
17437;DHT22;8836;52.272;5.134;2022-07-23T06:27:06;26.70;97.40
17437;DHT22;8836;52.272;5.134;2022-07-23T06:29:33;26.70;96.90
17437;DHT22;8836;52.272;5.134;2022-07-23T06:32:00;26.70;97.30
17437;DHT22;8836;52.272;5.134;2022-07-23T06:34:28;26.60;97.10
17437;DHT22;8836;52.272;5.134;2022-07-23T06:36:55;26.50;97.10
17437;DHT22;8836;52.272;5.134;2022-07-23T06:39:22;26.50;97.20
17437;DHT22;8836;52.272;5.134;2022-07-23T06:41:49;26.50;97.20
17437;DHT22;8836;52.272;5.134;2022-07-23T06:44:16;26.60;97.30
17437;DHT22;8836;52.272;5.134;2022-07-23T06:46:43;26.60;97.30
17437;DHT22;8836;52.272;5.134;2022-07-23T06:49:10;26.60;97.20
17437;DHT22;8836;52.272;5.134;2022-07-23T06:51:38;26.60;97.20
17437;DHT22;8836;52.272;5.134;2022-07-23T06:54:05;26.60;97.20
17437;DHT22;8836;52.272;5.134;2022-07-23T06:56:32;26.60;97.20
17437;DHT22;8836;52.272;5.134;2022-07-23T06:58:59;26.70;97.20
17437;DHT22;8836;52.272;5.134;2022-07-23T07:01:26;26.70;97.40
17437;DHT22;8836;52.272;5.134;2022-07-23T07:03:53;26.70;97.00
17437;DHT22;8836;52.272;5.134;2022-07-23T07:06:20;26.70;96.90
17437;DHT22;8836;52.272;5.134;2022-07-23T07:08:48;26.60;96.90
17437;DHT22;8836;52.272;5.134;2022-07-23T07:11:15;26.60;96.80
17437;DHT22;8836;52.272;5.134;2022-07-23T07:13:42;26.50;96.70
17437;DHT22;8836;52.272;5.134;2022-07-23T07:16:09;26.40;96.60
17437;DHT22;8836;52.272;5.134;2022-07-23T07:18:36;26.40;96.60
17437;DHT22;8836;52.272;5.134;2022-07-23T07:21:03;26.40;96.90
17437;DHT22;8836;52.272;5.134;2022-07-23T07:23:30;26.40;97.00
17437;DHT22;8836;52.272;5.134;2022-07-23T07:25:58;26.50;97.10
17437;DHT22;8836;52.272;5.134;2022-07-23T07:28:25;26.40;96.60
17437;DHT22;8836;52.272;5.134;2022-07-23T07:30:52;26.10;96.70
17437;DHT22;8836;52.272;5.134;2022-07-23T07:33:19;26.10;96.90
17437;DHT22;8836;52.272;5.134;2022-07-23T07:35:46;26.30;96.70
17437;DHT22;8836;52.272;5.134;2022-07-23T07:38:13;25.80;96.50
17437;DHT22;8836;52.272;5.134;2022-07-23T07:40:40;25.70;96.80
17437;DHT22;8836;52.272;5.134;2022-07-23T07:43:08;25.70;97.10
17437;DHT22;8836;52.272;5.134;2022-07-23T07:45:35;25.50;97.00
17437;DHT22;8836;52.272;5.134;2022-07-23T07:48:02;25.30;97.00
17437;DHT22;8836;52.272;5.134;2022-07-23T07:50:31;25.40;97.20
17437;DHT22;8836;52.272;5.134;2022-07-23T07:52:58;25.60;97.40
17437;DHT22;8836;52.272;5.134;2022-07-23T07:55:25;25.40;97.10
17437;DHT22;8836;52.272;5.134;2022-07-23T07:57:52;25.30;97.40
17437;DHT22;8836;52.272;5.134;2022-07-23T08:00:20;25.40;97.50
17437;DHT22;8836;52.272;5.134;2022-07-23T08:02:49;25.50;97.60
17437;DHT22;8836;52.272;5.134;2022-07-23T08:05:19;25.40;97.40
17437;DHT22;8836;52.272;5.134;2022-07-23T08:07:47;25.10;97.40
17437;DHT22;8836;52.272;5.134;2022-07-23T08:10:14;25.00;97.50
17437;DHT22;8836;52.272;5.134;2022-07-23T08:12:44;24.80;97.60
17437;DHT22;8836;52.272;5.134;2022-07-23T08:15:13;24.70;97.70
17437;DHT22;8836;52.272;5.134;2022-07-23T08:17:44;24.60;97.80
17437;DHT22;8836;52.272;5.134;2022-07-23T08:20:13;24.40;98.00
17437;DHT22;8836;52.272;5.134;2022-07-23T08:22:46;24.50;98.00
17437;DHT22;8836;52.272;5.134;2022-07-23T08:25:16;24.70;98.00
17437;DHT22;8836;52.272;5.134;2022-07-23T08:27:46;24.90;97.90
17437;DHT22;8836;52.272;5.134;2022-07-23T08:30:14;24.80;97.80
17437;DHT22;8836;52.272;5.134;2022-07-23T08:32:51;24.80;97.70
17437;DHT22;8836;52.272;5.134;2022-07-23T08:35:25;24.70;97.70
17437;DHT22;8836;52.272;5.134;2022-07-23T08:37:54;24.50;98.00
17437;DHT22;8836;52.272;5.134;2022-07-23T08:40:22;24.40;98.10
17437;DHT22;8836;52.272;5.134;2022-07-23T08:42:51;24.60;98.10
17437;DHT22;8836;52.272;5.134;2022-07-23T08:45:20;24.70;97.80
17437;DHT22;8836;52.272;5.134;2022-07-23T08:47:52;24.60;98.00
17437;DHT22;8836;52.272;5.134;2022-07-23T08:50:21;24.60;98.00
17437;DHT22;8836;52.272;5.134;2022-07-23T08:52:50;24.70;98.00
17437;DHT22;8836;52.272;5.134;2022-07-23T08:55:18;24.90;98.10
17437;DHT22;8836;52.272;5.134;2022-07-23T08:57:48;24.70;97.80
17437;DHT22;8836;52.272;5.134;2022-07-23T09:00:17;24.70;98.00
17437;DHT22;8836;52.272;5.134;2022-07-23T09:02:46;24.70;97.90
17437;DHT22;8836;52.272;5.134;2022-07-23T09:05:16;24.60;98.10
17437;DHT22;8836;52.272;5.134;2022-07-23T09:08:12;24.70;97.90
17437;DHT22;8836;52.272;5.134;2022-07-23T09:10:52;24.70;97.70
17437;DHT22;8836;52.272;5.134;2022-07-23T09:13:25;24.30;97.90
17437;DHT22;8836;52.272;5.134;2022-07-23T09:15:57;24.40;98.10
17437;DHT22;8836;52.272;5.134;2022-07-23T09:18:30;24.40;98.20
17437;DHT22;8836;52.272;5.134;2022-07-23T09:21:08;24.50;97.90
17437;DHT22;8836;52.272;5.134;2022-07-23T09:23:41;24.70;98.40
17437;DHT22;8836;52.272;5.134;2022-07-23T09:26:33;24.70;97.90
17437;DHT22;8836;52.272;5.134;2022-07-23T09:29:05;24.90;98.30
17437;DHT22;8836;52.272;5.134;2022-07-23T09:31:44;24.80;98.00
17437;DHT22;8836;52.272;5.134;2022-07-23T09:34:19;24.60;97.70
17437;DHT22;8836;52.272;5.134;2022-07-23T09:36:51;24.50;98.10
17437;DHT22;8836;52.272;5.134;2022-07-23T09:39:25;24.30;97.70
17437;DHT22;8836;52.272;5.134;2022-07-23T09:41:53;24.20;98.10
17437;DHT22;8836;52.272;5.134;2022-07-23T09:44:21;24.30;97.70
17437;DHT22;8836;52.272;5.134;2022-07-23T09:46:49;24.40;97.70
17437;DHT22;8836;52.272;5.134;2022-07-23T09:49:19;24.30;97.70
17437;DHT22;8836;52.272;5.134;2022-07-23T09:51:52;23.90;97.90
17437;DHT22;8836;52.272;5.134;2022-07-23T09:54:22;24.10;98.20
17437;DHT22;8836;52.272;5.134;2022-07-23T09:56:52;24.30;98.30
17437;DHT22;8836;52.272;5.134;2022-07-23T09:59:23;24.70;98.30
17437;DHT22;8836;52.272;5.134;2022-07-23T10:01:52;25.10;98.00
17437;DHT22;8836;52.272;5.134;2022-07-23T10:04:23;25.70;98.10
17437;DHT22;8836;52.272;5.134;2022-07-23T10:06:54;24.80;97.40
17437;DHT22;8836;52.272;5.134;2022-07-23T10:09:25;24.70;97.50
17437;DHT22;8836;52.272;5.134;2022-07-23T10:11:56;24.70;97.40
17437;DHT22;8836;52.272;5.134;2022-07-23T10:14:36;24.70;97.70
17437;DHT22;8836;52.272;5.134;2022-07-23T10:17:05;24.90;97.80
17437;DHT22;8836;52.272;5.134;2022-07-23T10:19:33;24.90;97.40
17437;DHT22;8836;52.272;5.134;2022-07-23T10:22:04;25.00;97.40
17437;DHT22;8836;52.272;5.134;2022-07-23T10:24:56;24.70;96.90
17437;DHT22;8836;52.272;5.134;2022-07-23T10:28:00;24.10;97.00
17437;DHT22;8836;52.272;5.134;2022-07-23T10:30:40;24.00;97.30
17437;DHT22;8836;52.272;5.134;2022-07-23T10:33:26;23.90;97.50
17437;DHT22;8836;52.272;5.134;2022-07-23T10:36:03;24.00;97.60
17437;DHT22;8836;52.272;5.134;2022-07-23T10:38:43;24.00;97.80
17437;DHT22;8836;52.272;5.134;2022-07-23T10:41:30;24.00;97.80
17437;DHT22;8836;52.272;5.134;2022-07-23T10:44:09;24.20;98.10
17437;DHT22;8836;52.272;5.134;2022-07-23T10:46:53;24.40;97.80
17437;DHT22;8836;52.272;5.134;2022-07-23T10:49:34;24.30;96.90
17437;DHT22;8836;52.272;5.134;2022-07-23T10:52:19;25.80;98.00
17437;DHT22;8836;52.272;5.134;2022-07-23T10:54:53;25.30;98.10
17437;DHT22;8836;52.272;5.134;2022-07-23T10:57:23;24.80;97.50
17437;DHT22;8836;52.272;5.134;2022-07-23T11:00:17;24.40;97.10
17437;DHT22;8836;52.272;5.134;2022-07-23T11:02:49;24.30;97.10
17437;DHT22;8836;52.272;5.134;2022-07-23T11:05:19;24.10;96.80
17437;DHT22;8836;52.272;5.134;2022-07-23T11:08:17;24.30;97.30
17437;DHT22;8836;52.272;5.134;2022-07-23T11:10:49;24.60;97.90
17437;DHT22;8836;52.272;5.134;2022-07-23T11:13:48;25.00;97.10
17437;DHT22;8836;52.272;5.134;2022-07-23T11:16:22;24.50;96.20
17437;DHT22;8836;52.272;5.134;2022-07-23T11:19:04;24.60;96.60
17437;DHT22;8836;52.272;5.134;2022-07-23T11:21:46;24.80;96.80
17437;DHT22;8836;52.272;5.134;2022-07-23T11:24:17;25.00;96.80
17437;DHT22;8836;52.272;5.134;2022-07-23T11:26:58;25.10;96.70
17437;DHT22;8836;52.272;5.134;2022-07-23T11:29:40;24.80;96.20
17437;DHT22;8836;52.272;5.134;2022-07-23T11:32:30;26.40;97.30
17437;DHT22;8836;52.272;5.134;2022-07-23T11:35:23;25.00;96.90
17437;DHT22;8836;52.272;5.134;2022-07-23T11:37:53;25.00;97.10
17437;DHT22;8836;52.272;5.134;2022-07-23T11:40:24;24.90;97.40
17437;DHT22;8836;52.272;5.134;2022-07-23T11:42:56;24.90;97.10
17437;DHT22;8836;52.272;5.134;2022-07-23T11:45:29;25.00;97.00
17437;DHT22;8836;52.272;5.134;2022-07-23T11:47:58;25.10;96.80
17437;DHT22;8836;52.272;5.134;2022-07-23T11:50:26;25.10;96.50
17437;DHT22;8836;52.272;5.134;2022-07-23T11:52:53;24.90;96.50
17437;DHT22;8836;52.272;5.134;2022-07-23T11:55:21;24.90;96.90
17437;DHT22;8836;52.272;5.134;2022-07-23T11:57:51;24.90;97.10
17437;DHT22;8836;52.272;5.134;2022-07-23T12:00:22;24.90;97.30
17437;DHT22;8836;52.272;5.134;2022-07-23T12:02:52;24.90;96.70
17437;DHT22;8836;52.272;5.134;2022-07-23T12:05:21;24.90;97.10
17437;DHT22;8836;52.272;5.134;2022-07-23T12:07:51;25.00;97.40
17437;DHT22;8836;52.272;5.134;2022-07-23T12:10:22;25.00;97.50
17437;DHT22;8836;52.272;5.134;2022-07-23T12:12:52;24.80;97.50
17437;DHT22;8836;52.272;5.134;2022-07-23T12:15:23;24.60;97.70
17437;DHT22;8836;52.272;5.134;2022-07-23T12:17:53;24.50;97.50
17437;DHT22;8836;52.272;5.134;2022-07-23T12:20:22;24.30;98.00
17437;DHT22;8836;52.272;5.134;2022-07-23T12:22:52;24.20;97.80
17437;DHT22;8836;52.272;5.134;2022-07-23T12:25:23;24.20;97.80
17437;DHT22;8836;52.272;5.134;2022-07-23T12:28:01;24.10;97.70
17437;DHT22;8836;52.272;5.134;2022-07-23T12:30:33;24.10;98.00
17437;DHT22;8836;52.272;5.134;2022-07-23T12:33:04;24.10;98.30
17437;DHT22;8836;52.272;5.134;2022-07-23T12:35:35;24.10;98.40
17437;DHT22;8836;52.272;5.134;2022-07-23T12:38:05;24.20;98.30
17437;DHT22;8836;52.272;5.134;2022-07-23T12:40:35;24.20;98.00
17437;DHT22;8836;52.272;5.134;2022-07-23T12:43:06;24.20;98.20
17437;DHT22;8836;52.272;5.134;2022-07-23T12:45:46;24.20;98.20
17437;DHT22;8836;52.272;5.134;2022-07-23T12:48:18;24.10;98.30
17437;DHT22;8836;52.272;5.134;2022-07-23T12:50:52;24.20;98.20
17437;DHT22;8836;52.272;5.134;2022-07-23T12:53:22;24.20;98.30
17437;DHT22;8836;52.272;5.134;2022-07-23T12:55:56;24.30;98.00
17437;DHT22;8836;52.272;5.134;2022-07-23T12:58:26;24.50;98.00
17437;DHT22;8836;52.272;5.134;2022-07-23T13:01:00;24.50;98.10
17437;DHT22;8836;52.272;5.134;2022-07-23T13:03:36;24.50;98.20
17437;DHT22;8836;52.272;5.134;2022-07-23T13:06:08;24.50;97.50
17437;DHT22;8836;52.272;5.134;2022-07-23T13:08:38;24.40;97.90
17437;DHT22;8836;52.272;5.134;2022-07-23T13:11:06;24.30;98.20
17437;DHT22;8836;52.272;5.134;2022-07-23T13:13:34;24.30;98.20
17437;DHT22;8836;52.272;5.134;2022-07-23T13:16:04;24.50;98.20
17437;DHT22;8836;52.272;5.134;2022-07-23T13:18:31;24.60;98.30
17437;DHT22;8836;52.272;5.134;2022-07-23T13:21:00;24.70;98.20
17437;DHT22;8836;52.272;5.134;2022-07-23T13:23:27;24.80;98.50
17437;DHT22;8836;52.272;5.134;2022-07-23T13:25:55;24.80;98.20
17437;DHT22;8836;52.272;5.134;2022-07-23T13:28:22;24.90;98.00
17437;DHT22;8836;52.272;5.134;2022-07-23T13:30:51;24.80;98.20
17437;DHT22;8836;52.272;5.134;2022-07-23T13:33:22;24.70;98.10
17437;DHT22;8836;52.272;5.134;2022-07-23T13:35:51;24.70;98.10
17437;DHT22;8836;52.272;5.134;2022-07-23T13:38:21;24.60;98.20
17437;DHT22;8836;52.272;5.134;2022-07-23T13:40:49;24.60;98.60
17437;DHT22;8836;52.272;5.134;2022-07-23T13:43:18;24.90;98.70
17437;DHT22;8836;52.272;5.134;2022-07-23T13:45:47;25.00;98.50
17437;DHT22;8836;52.272;5.134;2022-07-23T13:48:15;25.30;98.50
17437;DHT22;8836;52.272;5.134;2022-07-23T13:50:45;25.40;98.30
17437;DHT22;8836;52.272;5.134;2022-07-23T13:53:16;25.50;97.70
17437;DHT22;8836;52.272;5.134;2022-07-23T13:55:45;25.40;97.70
17437;DHT22;8836;52.272;5.134;2022-07-23T13:58:13;25.30;98.00
17437;DHT22;8836;52.272;5.134;2022-07-23T14:00:43;25.40;97.90
17437;DHT22;8836;52.272;5.134;2022-07-23T14:03:12;25.50;97.70
17437;DHT22;8836;52.272;5.134;2022-07-23T14:05:39;25.60;98.10
17437;DHT22;8836;52.272;5.134;2022-07-23T14:08:08;25.60;97.90
17437;DHT22;8836;52.272;5.134;2022-07-23T14:10:35;25.70;97.50
17437;DHT22;8836;52.272;5.134;2022-07-23T14:13:03;25.80;97.70
17437;DHT22;8836;52.272;5.134;2022-07-23T14:15:31;25.90;97.20
17437;DHT22;8836;52.272;5.134;2022-07-23T14:18:00;25.80;97.50
17437;DHT22;8836;52.272;5.134;2022-07-23T14:20:27;25.90;97.70
17437;DHT22;8836;52.272;5.134;2022-07-23T14:22:54;26.00;97.70
17437;DHT22;8836;52.272;5.134;2022-07-23T14:25:24;26.10;97.70
17437;DHT22;8836;52.272;5.134;2022-07-23T14:27:51;26.20;97.70
17437;DHT22;8836;52.272;5.134;2022-07-23T14:30:20;26.30;97.70
17437;DHT22;8836;52.272;5.134;2022-07-23T14:32:49;26.30;97.40
17437;DHT22;8836;52.272;5.134;2022-07-23T14:35:16;26.30;97.40
17437;DHT22;8836;52.272;5.134;2022-07-23T14:37:44;26.30;96.90
17437;DHT22;8836;52.272;5.134;2022-07-23T14:40:11;26.00;97.00
17437;DHT22;8836;52.272;5.134;2022-07-23T14:42:40;25.70;96.90
17437;DHT22;8836;52.272;5.134;2022-07-23T14:45:07;25.50;97.00
17437;DHT22;8836;52.272;5.134;2022-07-23T14:47:34;25.60;97.40
17437;DHT22;8836;52.272;5.134;2022-07-23T14:50:02;25.70;97.50
17437;DHT22;8836;52.272;5.134;2022-07-23T14:52:29;25.90;97.40
17437;DHT22;8836;52.272;5.134;2022-07-23T14:54:56;26.00;97.40
17437;DHT22;8836;52.272;5.134;2022-07-23T14:57:23;26.10;97.10
17437;DHT22;8836;52.272;5.134;2022-07-23T14:59:51;26.00;97.20
17437;DHT22;8836;52.272;5.134;2022-07-23T15:02:18;26.10;97.10
17437;DHT22;8836;52.272;5.134;2022-07-23T15:04:45;26.20;97.10
17437;DHT22;8836;52.272;5.134;2022-07-23T15:07:12;26.30;96.90
17437;DHT22;8836;52.272;5.134;2022-07-23T15:09:39;26.30;97.00
17437;DHT22;8836;52.272;5.134;2022-07-23T15:12:06;26.10;97.10
17437;DHT22;8836;52.272;5.134;2022-07-23T15:14:33;25.90;97.30
17437;DHT22;8836;52.272;5.134;2022-07-23T15:17:02;25.70;97.40
17437;DHT22;8836;52.272;5.134;2022-07-23T15:19:29;25.60;97.50
17437;DHT22;8836;52.272;5.134;2022-07-23T15:21:56;25.50;97.60
17437;DHT22;8836;52.272;5.134;2022-07-23T15:24:24;25.40;97.40
17437;DHT22;8836;52.272;5.134;2022-07-23T15:26:51;25.40;97.30
17437;DHT22;8836;52.272;5.134;2022-07-23T15:29:18;25.40;97.50
17437;DHT22;8836;52.272;5.134;2022-07-23T15:31:45;25.30;97.30
17437;DHT22;8836;52.272;5.134;2022-07-23T15:34:14;25.30;97.30
17437;DHT22;8836;52.272;5.134;2022-07-23T15:36:41;25.10;97.50
17437;DHT22;8836;52.272;5.134;2022-07-23T15:39:08;25.20;97.60
17437;DHT22;8836;52.272;5.134;2022-07-23T15:41:35;25.40;97.70
17437;DHT22;8836;52.272;5.134;2022-07-23T15:44:03;25.50;97.60
17437;DHT22;8836;52.272;5.134;2022-07-23T15:46:30;25.40;97.40
17437;DHT22;8836;52.272;5.134;2022-07-23T15:48:57;25.40;97.30
17437;DHT22;8836;52.272;5.134;2022-07-23T15:51:25;25.30;97.50
17437;DHT22;8836;52.272;5.134;2022-07-23T15:53:52;25.50;97.60
17437;DHT22;8836;52.272;5.134;2022-07-23T15:56:19;25.60;97.30
17437;DHT22;8836;52.272;5.134;2022-07-23T15:58:46;25.90;97.60